sensor_id;sensor_type;location;lat;lon;timestamp;pressure;altitude;pressure_sealevel;temperature;humidity
13553;BME280;6847;48.830;9.116;2023-10-09T00:01:49;98511.59;;;16.44;47.80
13553;BME280;6847;48.830;9.116;2023-10-09T00:04:16;98520.28;;;16.46;47.87
13553;BME280;6847;48.830;9.116;2023-10-09T00:06:43;98504.06;;;16.36;47.86
13553;BME280;6847;48.830;9.116;2023-10-09T00:09:10;98511.38;;;16.41;48.29
13553;BME280;6847;48.830;9.116;2023-10-09T00:11:52;98504.66;;;16.33;47.99
13553;BME280;6847;48.830;9.116;2023-10-09T00:14:24;98519.25;;;16.42;47.98
13553;BME280;6847;48.830;9.116;2023-10-09T00:16:51;98520.38;;;16.41;48.08
13553;BME280;6847;48.830;9.116;2023-10-09T00:19:22;98519.84;;;16.39;48.21
13553;BME280;6847;48.830;9.116;2023-10-09T00:21:57;98522.06;;;16.37;48.22
13553;BME280;6847;48.830;9.116;2023-10-09T00:24:31;98514.97;;;16.36;48.26
13553;BME280;6847;48.830;9.116;2023-10-09T00:26:58;98513.69;;;16.34;48.48
13553;BME280;6847;48.830;9.116;2023-10-09T00:29:39;98501.59;;;16.21;48.52
13553;BME280;6847;48.830;9.116;2023-10-09T00:32:10;98505.25;;;16.30;48.44
13553;BME280;6847;48.830;9.116;2023-10-09T00:34:48;98491.78;;;16.20;48.60
13553;BME280;6847;48.830;9.116;2023-10-09T00:37:16;98512.94;;;16.28;48.38
13553;BME280;6847;48.830;9.116;2023-10-09T00:39:48;98511.31;;;16.27;48.60
13553;BME280;6847;48.830;9.116;2023-10-09T00:42:22;98498.75;;;16.26;48.64
13553;BME280;6847;48.830;9.116;2023-10-09T00:44:56;98508.56;;;16.27;48.67
13553;BME280;6847;48.830;9.116;2023-10-09T00:47:28;98503.13;;;16.27;48.65
13553;BME280;6847;48.830;9.116;2023-10-09T00:50:02;98492.50;;;16.25;48.72
13553;BME280;6847;48.830;9.116;2023-10-09T00:52:37;98492.81;;;16.24;48.96
13553;BME280;6847;48.830;9.116;2023-10-09T00:55:10;98489.56;;;16.22;48.91
13553;BME280;6847;48.830;9.116;2023-10-09T00:57:44;98490.66;;;16.21;48.83
13553;BME280;6847;48.830;9.116;2023-10-09T01:00:24;98485.19;;;16.21;48.92
13553;BME280;6847;48.830;9.116;2023-10-09T01:02:58;98486.31;;;16.20;49.10
13553;BME280;6847;48.830;9.116;2023-10-09T01:05:46;98463.81;;;16.09;48.95
13553;BME280;6847;48.830;9.116;2023-10-09T01:08:18;98476.47;;;16.19;49.06
13553;BME280;6847;48.830;9.116;2023-10-09T01:10:54;98478.09;;;16.20;49.14
13553;BME280;6847;48.830;9.116;2023-10-09T01:13:24;98481.34;;;16.22;49.00
13553;BME280;6847;48.830;9.116;2023-10-09T01:16:06;98476.13;;;16.25;48.96
13553;BME280;6847;48.830;9.116;2023-10-09T01:18:43;98476.31;;;16.29;48.88
13553;BME280;6847;48.830;9.116;2023-10-09T01:21:12;98455.66;;;16.23;49.10
13553;BME280;6847;48.830;9.116;2023-10-09T01:23:45;98477.75;;;16.40;48.99
13553;BME280;6847;48.830;9.116;2023-10-09T01:26:29;98463.56;;;16.38;49.28
13553;BME280;6847;48.830;9.116;2023-10-09T01:29:00;98468.84;;;16.48;49.27
13553;BME280;6847;48.830;9.116;2023-10-09T01:31:28;98473.44;;;16.53;49.18
13553;BME280;6847;48.830;9.116;2023-10-09T01:33:59;98462.22;;;16.54;49.22
13553;BME280;6847;48.830;9.116;2023-10-09T01:36:30;98465.22;;;16.53;49.26
13553;BME280;6847;48.830;9.116;2023-10-09T01:39:02;98456.09;;;16.57;49.21
13553;BME280;6847;48.830;9.116;2023-10-09T01:41:34;98464.81;;;16.59;49.28
13553;BME280;6847;48.830;9.116;2023-10-09T01:44:11;98465.38;;;16.61;49.55
13553;BME280;6847;48.830;9.116;2023-10-09T01:46:41;98460.41;;;16.63;49.55
13553;BME280;6847;48.830;9.116;2023-10-09T01:49:11;98455.94;;;16.68;49.49
13553;BME280;6847;48.830;9.116;2023-10-09T01:51:43;98458.38;;;16.69;49.59
13553;BME280;6847;48.830;9.116;2023-10-09T01:54:11;98446.03;;;16.72;49.30
13553;BME280;6847;48.830;9.116;2023-10-09T01:57:00;98445.41;;;16.75;49.36
13553;BME280;6847;48.830;9.116;2023-10-09T01:59:36;98435.63;;;16.74;49.60
13553;BME280;6847;48.830;9.116;2023-10-09T02:02:10;98415.09;;;16.57;49.93
13553;BME280;6847;48.830;9.116;2023-10-09T02:04:51;98442.69;;;16.75;49.95
13553;BME280;6847;48.830;9.116;2023-10-09T02:07:19;98434.47;;;16.75;49.73
13553;BME280;6847;48.830;9.116;2023-10-09T02:09:55;98412.19;;;16.68;50.01
13553;BME280;6847;48.830;9.116;2023-10-09T02:12:22;98434.38;;;16.80;49.89
13553;BME280;6847;48.830;9.116;2023-10-09T02:14:50;98436.53;;;16.83;49.86
13553;BME280;6847;48.830;9.116;2023-10-09T02:17:20;98421.31;;;16.77;50.05
13553;BME280;6847;48.830;9.116;2023-10-09T02:19:54;98432.69;;;16.84;49.77
13553;BME280;6847;48.830;9.116;2023-10-09T02:22:21;98428.03;;;16.84;49.87
13553;BME280;6847;48.830;9.116;2023-10-09T02:24:55;98422.53;;;16.84;50.01
13553;BME280;6847;48.830;9.116;2023-10-09T02:27:26;98429.59;;;16.85;49.89
13553;BME280;6847;48.830;9.116;2023-10-09T02:30:11;98416.88;;;16.81;50.14
13553;BME280;6847;48.830;9.116;2023-10-09T02:32:53;98415.03;;;16.76;50.13
13553;BME280;6847;48.830;9.116;2023-10-09T02:35:32;98429.00;;;16.88;49.95
13553;BME280;6847;48.830;9.116;2023-10-09T02:38:05;98433.66;;;16.88;50.07
13553;BME280;6847;48.830;9.116;2023-10-09T02:40:37;98413.03;;;16.82;49.97
13553;BME280;6847;48.830;9.116;2023-10-09T02:43:18;98431.44;;;16.90;50.18
13553;BME280;6847;48.830;9.116;2023-10-09T02:45:46;98427.59;;;16.91;49.99
13553;BME280;6847;48.830;9.116;2023-10-09T02:48:17;98426.19;;;16.93;50.22
13553;BME280;6847;48.830;9.116;2023-10-09T02:50:45;98430.50;;;16.94;50.03
13553;BME280;6847;48.830;9.116;2023-10-09T02:53:16;98423.94;;;16.95;50.12
13553;BME280;6847;48.830;9.116;2023-10-09T02:55:59;98424.75;;;16.96;50.39
13553;BME280;6847;48.830;9.116;2023-10-09T02:58:38;98404.09;;;16.90;50.46
13553;BME280;6847;48.830;9.116;2023-10-09T03:01:09;98419.91;;;16.93;50.42
13553;BME280;6847;48.830;9.116;2023-10-09T03:03:36;98420.28;;;17.00;50.22
13553;BME280;6847;48.830;9.116;2023-10-09T03:06:04;98410.97;;;17.01;50.18
13553;BME280;6847;48.830;9.116;2023-10-09T03:08:36;98410.97;;;17.01;50.26
13553;BME280;6847;48.830;9.116;2023-10-09T03:11:05;98409.84;;;17.02;50.30
13553;BME280;6847;48.830;9.116;2023-10-09T03:13:40;98401.03;;;17.05;50.33
13553;BME280;6847;48.830;9.116;2023-10-09T03:16:10;98407.31;;;17.06;50.25
13553;BME280;6847;48.830;9.116;2023-10-09T03:18:46;98385.84;;;16.99;50.17
13553;BME280;6847;48.830;9.116;2023-10-09T03:21:14;98394.75;;;17.05;50.16
13553;BME280;6847;48.830;9.116;2023-10-09T03:23:42;98383.63;;;17.01;50.41
13553;BME280;6847;48.830;9.116;2023-10-09T03:26:14;98388.97;;;17.06;50.13
13553;BME280;6847;48.830;9.116;2023-10-09T03:28:45;98346.56;;;16.81;50.62
13553;BME280;6847;48.830;9.116;2023-10-09T03:31:14;98395.97;;;17.12;50.66
13553;BME280;6847;48.830;9.116;2023-10-09T03:33:41;98392.09;;;17.13;50.69
13553;BME280;6847;48.830;9.116;2023-10-09T03:36:10;98387.75;;;17.12;50.43
13553;BME280;6847;48.830;9.116;2023-10-09T03:38:39;98386.63;;;17.13;50.57
13553;BME280;6847;48.830;9.116;2023-10-09T03:41:06;98384.59;;;17.05;50.59
13553;BME280;6847;48.830;9.116;2023-10-09T03:43:42;98396.78;;;17.13;50.57
13553;BME280;6847;48.830;9.116;2023-10-09T03:46:11;98392.94;;;17.14;50.63
13553;BME280;6847;48.830;9.116;2023-10-09T03:48:45;98385.31;;;17.11;50.89
13553;BME280;6847;48.830;9.116;2023-10-09T03:51:14;98389.56;;;17.17;50.80
13553;BME280;6847;48.830;9.116;2023-10-09T03:53:47;98374.16;;;17.07;50.90
13553;BME280;6847;48.830;9.116;2023-10-09T03:56:18;98389.56;;;17.17;50.84
13553;BME280;6847;48.830;9.116;2023-10-09T03:59:02;98387.13;;;17.15;51.04
13553;BME280;6847;48.830;9.116;2023-10-09T04:01:31;98386.44;;;17.10;50.71
13553;BME280;6847;48.830;9.116;2023-10-09T04:04:06;98382.19;;;17.04;50.93
13553;BME280;6847;48.830;9.116;2023-10-09T04:06:49;98365.19;;;16.93;51.01
13553;BME280;6847;48.830;9.116;2023-10-09T04:09:22;98397.16;;;17.06;51.00
13553;BME280;6847;48.830;9.116;2023-10-09T04:12:10;98384.22;;;16.98;50.99
13553;BME280;6847;48.830;9.116;2023-10-09T04:14:56;98389.69;;;16.98;51.00
13553;BME280;6847;48.830;9.116;2023-10-09T04:17:33;98391.09;;;16.95;51.29
13553;BME280;6847;48.830;9.116;2023-10-09T04:20:07;98390.94;;;16.92;51.50
13553;BME280;6847;48.830;9.116;2023-10-09T04:22:55;98368.25;;;16.78;51.51
13553;BME280;6847;48.830;9.116;2023-10-09T04:25:33;98400.66;;;16.84;51.46
13553;BME280;6847;48.830;9.116;2023-10-09T04:28:18;98403.41;;;16.84;51.40
13553;BME280;6847;48.830;9.116;2023-10-09T04:30:51;98367.47;;;16.63;51.70
13553;BME280;6847;48.830;9.116;2023-10-09T04:33:22;98398.25;;;16.83;51.56
13553;BME280;6847;48.830;9.116;2023-10-09T04:36:07;98404.81;;;16.82;51.82
13553;BME280;6847;48.830;9.116;2023-10-09T04:38:47;98396.63;;;16.82;51.47
13553;BME280;6847;48.830;9.116;2023-10-09T04:41:41;98376.06;;;16.71;51.55
13553;BME280;6847;48.830;9.116;2023-10-09T04:44:24;98387.50;;;16.73;51.63
13553;BME280;6847;48.830;9.116;2023-10-09T04:47:04;98393.38;;;16.80;51.60
13553;BME280;6847;48.830;9.116;2023-10-09T04:49:51;98386.47;;;16.69;51.93
13553;BME280;6847;48.830;9.116;2023-10-09T04:52:28;98402.69;;;16.79;51.77
13553;BME280;6847;48.830;9.116;2023-10-09T04:55:08;98393.97;;;16.77;51.86
13553;BME280;6847;48.830;9.116;2023-10-09T04:57:46;98394.47;;;16.79;51.53
13553;BME280;6847;48.830;9.116;2023-10-09T05:00:26;98384.84;;;16.68;51.76
13553;BME280;6847;48.830;9.116;2023-10-09T05:03:14;98324.31;;;16.33;51.97
13553;BME280;6847;48.830;9.116;2023-10-09T05:05:53;98389.72;;;16.71;52.12
13553;BME280;6847;48.830;9.116;2023-10-09T05:08:47;98399.94;;;16.79;52.04
13553;BME280;6847;48.830;9.116;2023-10-09T05:11:15;98396.63;;;16.82;51.94
13553;BME280;6847;48.830;9.116;2023-10-09T05:14:00;98403.41;;;16.84;51.95
13553;BME280;6847;48.830;9.116;2023-10-09T05:16:44;98407.94;;;16.89;51.73
13553;BME280;6847;48.830;9.116;2023-10-09T05:19:23;98394.78;;;16.91;52.17
13553;BME280;6847;48.830;9.116;2023-10-09T05:21:56;98398.63;;;16.90;51.93
13553;BME280;6847;48.830;9.116;2023-10-09T05:24:31;98408.44;;;16.91;52.04
13553;BME280;6847;48.830;9.116;2023-10-09T05:27:09;98388.91;;;16.84;52.01
13553;BME280;6847;48.830;9.116;2023-10-09T05:29:44;98344.53;;;16.46;51.99
13553;BME280;6847;48.830;9.116;2023-10-09T05:32:24;98408.38;;;16.82;52.18
13553;BME280;6847;48.830;9.116;2023-10-09T05:34:57;98405.31;;;16.84;52.16
13553;BME280;6847;48.830;9.116;2023-10-09T05:37:41;98398.63;;;16.76;52.28
13553;BME280;6847;48.830;9.116;2023-10-09T05:40:12;98410.81;;;16.84;52.30
13553;BME280;6847;48.830;9.116;2023-10-09T05:42:48;98386.28;;;16.79;52.46
13553;BME280;6847;48.830;9.116;2023-10-09T05:45:25;98408.97;;;16.93;52.36
13553;BME280;6847;48.830;9.116;2023-10-09T05:48:09;98403.97;;;16.95;52.40
13553;BME280;6847;48.830;9.116;2023-10-09T05:50:55;98405.72;;;16.91;52.63
13553;BME280;6847;48.830;9.116;2023-10-09T05:53:44;98400.84;;;16.88;52.30
13553;BME280;6847;48.830;9.116;2023-10-09T05:56:29;98411.78;;;16.88;52.54
13553;BME280;6847;48.830;9.116;2023-10-09T05:59:25;98410.59;;;16.94;52.49
13553;BME280;6847;48.830;9.116;2023-10-09T06:02:10;98405.28;;;16.97;52.66
13553;BME280;6847;48.830;9.116;2023-10-09T06:04:54;98408.75;;;17.03;52.39
13553;BME280;6847;48.830;9.116;2023-10-09T06:07:23;98393.91;;;17.04;52.32
13553;BME280;6847;48.830;9.116;2023-10-09T06:10:07;98410.31;;;17.18;52.14
13553;BME280;6847;48.830;9.116;2023-10-09T06:12:53;98413.78;;;17.23;52.00
13553;BME280;6847;48.830;9.116;2023-10-09T06:15:36;98415.38;;;17.24;52.40
13553;BME280;6847;48.830;9.116;2023-10-09T06:18:17;98402.81;;;17.23;52.22
13553;BME280;6847;48.830;9.116;2023-10-09T06:20:59;98423.84;;;17.36;51.98
13553;BME280;6847;48.830;9.116;2023-10-09T06:23:38;98426.50;;;17.42;52.13
13553;BME280;6847;48.830;9.116;2023-10-09T06:26:25;98426.38;;;17.47;52.07
13553;BME280;6847;48.830;9.116;2023-10-09T06:28:53;98431.75;;;17.52;51.96
13553;BME280;6847;48.830;9.116;2023-10-09T06:31:33;98429.97;;;17.56;52.29
13553;BME280;6847;48.830;9.116;2023-10-09T06:34:22;98432.34;;;17.62;52.20
13553;BME280;6847;48.830;9.116;2023-10-09T06:36:59;98432.50;;;17.66;52.08
13553;BME280;6847;48.830;9.116;2023-10-09T06:39:34;98436.78;;;17.72;52.37
13553;BME280;6847;48.830;9.116;2023-10-09T06:42:18;98444.84;;;17.77;51.81
13553;BME280;6847;48.830;9.116;2023-10-09T06:45:00;98438.94;;;17.84;52.19
13553;BME280;6847;48.830;9.116;2023-10-09T06:47:31;98445.28;;;17.93;52.22
13553;BME280;6847;48.830;9.116;2023-10-09T06:50:06;98445.97;;;17.98;51.86
13553;BME280;6847;48.830;9.116;2023-10-09T06:52:50;98440.34;;;18.03;51.74
13553;BME280;6847;48.830;9.116;2023-10-09T06:55:42;98435.22;;;18.02;52.19
13553;BME280;6847;48.830;9.116;2023-10-09T06:58:18;98441.72;;;18.15;51.86
13553;BME280;6847;48.830;9.116;2023-10-09T07:00:49;98445.97;;;18.21;52.21
13553;BME280;6847;48.830;9.116;2023-10-09T07:03:40;98442.31;;;18.34;51.74
13553;BME280;6847;48.830;9.116;2023-10-09T07:06:17;98425.88;;;18.34;51.76
13553;BME280;6847;48.830;9.116;2023-10-09T07:08:49;98380.47;;;18.10;51.60
13553;BME280;6847;48.830;9.116;2023-10-09T07:11:40;98439.91;;;18.63;51.66
13553;BME280;6847;48.830;9.116;2023-10-09T07:14:25;98307.03;;;17.90;51.55
13553;BME280;6847;48.830;9.116;2023-10-09T07:17:10;98393.84;;;18.52;51.84
13553;BME280;6847;48.830;9.116;2023-10-09T07:19:48;98448.72;;;18.91;51.59
13553;BME280;6847;48.830;9.116;2023-10-09T07:22:35;98421.63;;;18.90;51.41
13553;BME280;6847;48.830;9.116;2023-10-09T07:25:20;98438.47;;;19.14;51.40
13553;BME280;6847;48.830;9.116;2023-10-09T07:28:22;98441.41;;;19.26;51.63
13553;BME280;6847;48.830;9.116;2023-10-09T07:31:23;98401.31;;;19.08;51.52
13553;BME280;6847;48.830;9.116;2023-10-09T07:34:19;98440.78;;;19.38;51.61
13553;BME280;6847;48.830;9.116;2023-10-09T07:37:18;98412.50;;;19.29;51.55
13553;BME280;6847;48.830;9.116;2023-10-09T07:39:49;98440.66;;;19.51;51.59
13553;BME280;6847;48.830;9.116;2023-10-09T07:42:22;98451.63;;;19.60;51.54
13553;BME280;6847;48.830;9.116;2023-10-09T07:44:59;98446.81;;;19.66;51.36
13553;BME280;6847;48.830;9.116;2023-10-09T07:47:37;98449.22;;;19.76;51.37
13553;BME280;6847;48.830;9.116;2023-10-09T07:50:28;98456.34;;;19.85;51.47
13553;BME280;6847;48.830;9.116;2023-10-09T07:53:04;98432.56;;;19.81;51.25
13553;BME280;6847;48.830;9.116;2023-10-09T07:55:43;98451.00;;;19.98;51.31
13553;BME280;6847;48.830;9.116;2023-10-09T07:58:20;98456.63;;;20.01;51.40
13553;BME280;6847;48.830;9.116;2023-10-09T08:00:51;98454.69;;;20.10;51.43
13553;BME280;6847;48.830;9.116;2023-10-09T08:03:47;98460.00;;;20.24;51.28
13553;BME280;6847;48.830;9.116;2023-10-09T08:06:23;98452.25;;;20.35;51.00
13553;BME280;6847;48.830;9.116;2023-10-09T08:09:05;98458.53;;;20.44;51.07
13553;BME280;6847;48.830;9.116;2023-10-09T08:12:03;98461.59;;;20.51;51.08
13553;BME280;6847;48.830;9.116;2023-10-09T08:14:57;98457.16;;;20.67;50.92
13553;BME280;6847;48.830;9.116;2023-10-09T08:17:46;98471.00;;;20.88;50.76
13553;BME280;6847;48.830;9.116;2023-10-09T08:20:18;98468.97;;;21.05;50.65
13553;BME280;6847;48.830;9.116;2023-10-09T08:22:51;98465.03;;;21.24;50.40
13553;BME280;6847;48.830;9.116;2023-10-09T08:25:18;98471.75;;;21.35;50.41
13553;BME280;6847;48.830;9.116;2023-10-09T08:27:59;98467.28;;;21.51;50.30
13553;BME280;6847;48.830;9.116;2023-10-09T08:30:52;98459.44;;;21.62;50.21
13553;BME280;6847;48.830;9.116;2023-10-09T08:33:30;98469.44;;;21.87;50.01
13553;BME280;6847;48.830;9.116;2023-10-09T08:36:11;98465.72;;;22.04;49.86
13553;BME280;6847;48.830;9.116;2023-10-09T08:38:43;98473.41;;;22.19;49.87
13553;BME280;6847;48.830;9.116;2023-10-09T08:41:12;98476.22;;;22.31;49.81
13553;BME280;6847;48.830;9.116;2023-10-09T08:43:50;98472.53;;;22.39;49.65
13553;BME280;6847;48.830;9.116;2023-10-09T08:46:23;98477.84;;;22.44;49.72
13553;BME280;6847;48.830;9.116;2023-10-09T08:48:52;98457.59;;;22.40;49.82
13553;BME280;6847;48.830;9.116;2023-10-09T08:51:22;98476.94;;;22.52;49.62
13553;BME280;6847;48.830;9.116;2023-10-09T08:53:49;98477.88;;;22.57;49.74
13553;BME280;6847;48.830;9.116;2023-10-09T08:56:20;98482.00;;;22.63;49.82
13553;BME280;6847;48.830;9.116;2023-10-09T08:58:50;98475.16;;;22.69;49.67
13553;BME280;6847;48.830;9.116;2023-10-09T09:01:17;98463.50;;;22.63;49.54
13553;BME280;6847;48.830;9.116;2023-10-09T09:03:46;98484.84;;;22.87;49.38
13553;BME280;6847;48.830;9.116;2023-10-09T09:06:13;98486.38;;;22.97;49.15
13553;BME280;6847;48.830;9.116;2023-10-09T09:08:44;98477.63;;;23.07;49.26
13553;BME280;6847;48.830;9.116;2023-10-09T09:11:12;98471.28;;;23.06;49.38
13553;BME280;6847;48.830;9.116;2023-10-09T09:13:40;98488.09;;;23.25;49.07
13553;BME280;6847;48.830;9.116;2023-10-09T09:16:19;98491.75;;;23.42;48.77
13553;BME280;6847;48.830;9.116;2023-10-09T09:18:51;98506.53;;;23.58;48.69
13553;BME280;6847;48.830;9.116;2023-10-09T09:21:22;98507.75;;;23.73;48.67
13553;BME280;6847;48.830;9.116;2023-10-09T09:23:56;98512.31;;;23.93;48.41
13553;BME280;6847;48.830;9.116;2023-10-09T09:26:34;98512.16;;;24.14;48.16
13553;BME280;6847;48.830;9.116;2023-10-09T09:29:05;98398.47;;;23.63;47.94
13553;BME280;6847;48.830;9.116;2023-10-09T09:31:32;98492.34;;;24.40;47.64
13553;BME280;6847;48.830;9.116;2023-10-09T09:34:04;98509.19;;;24.62;47.60
13553;BME280;6847;48.830;9.116;2023-10-09T09:36:52;98511.63;;;24.80;47.43
13553;BME280;6847;48.830;9.116;2023-10-09T09:39:37;98513.50;;;24.91;47.38
13553;BME280;6847;48.830;9.116;2023-10-09T09:42:05;98508.97;;;24.99;47.06
13553;BME280;6847;48.830;9.116;2023-10-09T09:44:40;98513.00;;;25.17;46.97
13553;BME280;6847;48.830;9.116;2023-10-09T09:47:13;98516.84;;;25.28;46.72
13553;BME280;6847;48.830;9.116;2023-10-09T09:49:50;98510.31;;;25.36;46.41
13553;BME280;6847;48.830;9.116;2023-10-09T09:52:28;98513.41;;;25.51;46.50
13553;BME280;6847;48.830;9.116;2023-10-09T09:55:08;98514.50;;;25.62;46.07
13553;BME280;6847;48.830;9.116;2023-10-09T09:57:44;98522.72;;;25.74;45.95
13553;BME280;6847;48.830;9.116;2023-10-09T10:00:18;98524.53;;;25.86;45.89
13553;BME280;6847;48.830;9.116;2023-10-09T10:03:00;98517.66;;;25.95;45.62
13553;BME280;6847;48.830;9.116;2023-10-09T10:05:32;98505.09;;;26.01;45.40
13553;BME280;6847;48.830;9.116;2023-10-09T10:08:02;98514.72;;;26.07;45.32
13553;BME280;6847;48.830;9.116;2023-10-09T10:10:37;98510.50;;;26.13;45.40
13553;BME280;6847;48.830;9.116;2023-10-09T10:13:13;98509.47;;;26.22;44.92
13553;BME280;6847;48.830;9.116;2023-10-09T10:16:09;98513.09;;;26.26;44.52
13553;BME280;6847;48.830;9.116;2023-10-09T10:18:56;98510.53;;;26.33;44.62
13553;BME280;6847;48.830;9.116;2023-10-09T10:21:32;98509.94;;;26.43;44.13
13553;BME280;6847;48.830;9.116;2023-10-09T10:24:03;98504.63;;;26.57;43.85
13553;BME280;6847;48.830;9.116;2023-10-09T10:26:37;98513.69;;;26.73;43.74
13553;BME280;6847;48.830;9.116;2023-10-09T10:29:16;98500.78;;;26.84;43.41
13553;BME280;6847;48.830;9.116;2023-10-09T10:31:53;98501.22;;;26.86;43.64
13553;BME280;6847;48.830;9.116;2023-10-09T10:34:21;98504.00;;;26.86;43.31
13553;BME280;6847;48.830;9.116;2023-10-09T10:36:53;98468.91;;;26.78;43.07
13553;BME280;6847;48.830;9.116;2023-10-09T10:39:25;98491.22;;;27.05;42.75
13553;BME280;6847;48.830;9.116;2023-10-09T10:42:27;98492.09;;;27.09;42.95
13553;BME280;6847;48.830;9.116;2023-10-09T10:45:04;98495.31;;;27.11;42.78
13553;BME280;6847;48.830;9.116;2023-10-09T10:47:53;98496.94;;;27.12;42.77
13553;BME280;6847;48.830;9.116;2023-10-09T10:50:22;98501.69;;;27.11;42.59
13553;BME280;6847;48.830;9.116;2023-10-09T10:53:08;98508.41;;;27.10;42.15
13553;BME280;6847;48.830;9.116;2023-10-09T10:55:55;98497.22;;;27.07;42.38
13553;BME280;6847;48.830;9.116;2023-10-09T10:58:23;98481.72;;;27.06;42.31
13553;BME280;6847;48.830;9.116;2023-10-09T11:01:01;98492.84;;;27.06;42.27
13553;BME280;6847;48.830;9.116;2023-10-09T11:03:40;98488.88;;;27.07;42.17
13553;BME280;6847;48.830;9.116;2023-10-09T11:06:35;98497.66;;;27.09;41.80
13553;BME280;6847;48.830;9.116;2023-10-09T11:09:03;98498.50;;;27.13;41.26
13553;BME280;6847;48.830;9.116;2023-10-09T11:11:47;98502.72;;;27.26;41.07
13553;BME280;6847;48.830;9.116;2023-10-09T11:14:14;98518.19;;;27.50;40.63
13553;BME280;6847;48.830;9.116;2023-10-09T11:16:40;98515.13;;;27.81;40.24
13553;BME280;6847;48.830;9.116;2023-10-09T11:19:13;98507.09;;;28.06;39.48
13553;BME280;6847;48.830;9.116;2023-10-09T11:21:56;98511.50;;;28.41;39.31
13553;BME280;6847;48.830;9.116;2023-10-09T11:24:48;98511.75;;;28.58;39.10
13553;BME280;6847;48.830;9.116;2023-10-09T11:27:26;98510.88;;;28.54;39.05
13553;BME280;6847;48.830;9.116;2023-10-09T11:29:58;98505.94;;;28.41;38.96
13553;BME280;6847;48.830;9.116;2023-10-09T11:32:31;98500.97;;;28.23;39.00
13553;BME280;6847;48.830;9.116;2023-10-09T11:35:10;98501.47;;;28.03;39.14
13553;BME280;6847;48.830;9.116;2023-10-09T11:37:39;98494.06;;;27.84;39.02
13553;BME280;6847;48.830;9.116;2023-10-09T11:40:27;98487.53;;;27.73;38.73
13553;BME280;6847;48.830;9.116;2023-10-09T11:42:59;98481.06;;;27.61;38.74
13553;BME280;6847;48.830;9.116;2023-10-09T11:45:27;98468.50;;;27.48;38.74
13553;BME280;6847;48.830;9.116;2023-10-09T11:47:56;98470.31;;;27.37;38.55
13553;BME280;6847;48.830;9.116;2023-10-09T11:50:42;98487.63;;;27.27;38.49
13553;BME280;6847;48.830;9.116;2023-10-09T11:53:20;98481.63;;;27.25;38.21
13553;BME280;6847;48.830;9.116;2023-10-09T11:55:59;98476.44;;;27.23;37.83
13553;BME280;6847;48.830;9.116;2023-10-09T11:58:26;98474.91;;;27.26;37.86
13553;BME280;6847;48.830;9.116;2023-10-09T12:00:52;98467.00;;;27.28;37.67
13553;BME280;6847;48.830;9.116;2023-10-09T12:03:23;98447.06;;;27.22;37.20
13553;BME280;6847;48.830;9.116;2023-10-09T12:05:54;98455.88;;;27.28;37.23
13553;BME280;6847;48.830;9.116;2023-10-09T12:08:23;98445.81;;;27.20;36.91
13553;BME280;6847;48.830;9.116;2023-10-09T12:10:53;98455.13;;;27.31;36.59
13553;BME280;6847;48.830;9.116;2023-10-09T12:13:21;98456.84;;;27.39;36.37
13553;BME280;6847;48.830;9.116;2023-10-09T12:15:52;98453.91;;;27.55;35.69
13553;BME280;6847;48.830;9.116;2023-10-09T12:18:20;98444.63;;;27.74;35.71
13553;BME280;6847;48.830;9.116;2023-10-09T12:20:48;98445.34;;;27.97;35.28
13553;BME280;6847;48.830;9.116;2023-10-09T12:23:23;98436.38;;;28.14;34.87
13553;BME280;6847;48.830;9.116;2023-10-09T12:25:53;98443.94;;;28.47;34.60
13553;BME280;6847;48.830;9.116;2023-10-09T12:28:22;98445.53;;;28.85;34.42
13553;BME280;6847;48.830;9.116;2023-10-09T12:30:49;98427.94;;;29.29;33.88
13553;BME280;6847;48.830;9.116;2023-10-09T12:33:22;98386.72;;;29.63;33.43
13553;BME280;6847;48.830;9.116;2023-10-09T12:35:53;98393.31;;;30.06;33.08
13553;BME280;6847;48.830;9.116;2023-10-09T12:38:28;98411.34;;;30.40;32.64
13553;BME280;6847;48.830;9.116;2023-10-09T12:41:02;98417.78;;;30.66;32.45
13553;BME280;6847;48.830;9.116;2023-10-09T12:43:33;98422.22;;;30.84;32.53
13553;BME280;6847;48.830;9.116;2023-10-09T12:46:05;98423.03;;;30.92;32.24
13553;BME280;6847;48.830;9.116;2023-10-09T12:48:35;98412.63;;;30.93;31.84
13553;BME280;6847;48.830;9.116;2023-10-09T12:51:13;98402.22;;;30.97;32.12
13553;BME280;6847;48.830;9.116;2023-10-09T12:53:43;98423.81;;;31.17;31.60
13553;BME280;6847;48.830;9.116;2023-10-09T12:56:11;98433.41;;;31.16;31.41
13553;BME280;6847;48.830;9.116;2023-10-09T12:58:40;98438.19;;;31.05;31.22
13553;BME280;6847;48.830;9.116;2023-10-09T13:01:17;98425.41;;;30.86;31.63
13553;BME280;6847;48.830;9.116;2023-10-09T13:03:47;98415.81;;;30.77;31.61
13553;BME280;6847;48.830;9.116;2023-10-09T13:06:14;98428.59;;;30.78;31.50
13553;BME280;6847;48.830;9.116;2023-10-09T13:08:53;98413.00;;;30.77;31.33
13553;BME280;6847;48.830;9.116;2023-10-09T13:11:26;98423.00;;;31.06;30.43
13553;BME280;6847;48.830;9.116;2023-10-09T13:13:55;98423.81;;;31.28;30.37
13553;BME280;6847;48.830;9.116;2023-10-09T13:16:24;98413.38;;;31.53;30.02
13553;BME280;6847;48.830;9.116;2023-10-09T13:18:57;98203.81;;;30.43;29.82
13553;BME280;6847;48.830;9.116;2023-10-09T13:21:26;98407.91;;;32.26;29.07
13553;BME280;6847;48.830;9.116;2023-10-09T13:23:58;98410.47;;;32.69;28.45
13553;BME280;6847;48.830;9.116;2023-10-09T13:26:29;98409.06;;;32.95;28.34
13553;BME280;6847;48.830;9.116;2023-10-09T13:29:01;98395.75;;;33.06;28.10
13553;BME280;6847;48.830;9.116;2023-10-09T13:31:30;98400.88;;;33.15;28.25
13553;BME280;6847;48.830;9.116;2023-10-09T13:34:05;98400.59;;;33.47;27.42
13553;BME280;6847;48.830;9.116;2023-10-09T13:36:36;98407.50;;;33.76;27.53
13553;BME280;6847;48.830;9.116;2023-10-09T13:39:08;98410.91;;;33.91;27.29
13553;BME280;6847;48.830;9.116;2023-10-09T13:41:51;98404.09;;;34.26;27.03
13553;BME280;6847;48.830;9.116;2023-10-09T13:44:28;98398.88;;;34.51;26.80
13553;BME280;6847;48.830;9.116;2023-10-09T13:47:02;98394.81;;;34.56;26.26
13553;BME280;6847;48.830;9.116;2023-10-09T13:49:36;98411.25;;;34.84;25.83
13553;BME280;6847;48.830;9.116;2023-10-09T13:52:08;98409.13;;;35.15;25.50
13553;BME280;6847;48.830;9.116;2023-10-09T13:54:37;98403.81;;;35.44;25.56
13553;BME280;6847;48.830;9.116;2023-10-09T13:57:07;98407.03;;;35.42;25.65